Time;durP1;ratioP1;P1;durP2;ratioP2;P2;SDS_P1;SDS_P2;PMS_P1;PMS_P2;Temp;Humidity;BMP_temperature;BMP_pressure;BME280_temperature;BME280_humidity;BME280_pressure;Samples;Min_cycle;Max_cycle;Signal;HPM_P1;HPM_P2
2022/05/14 00:00:55;;;;;;;10.13;4.03;;;11.70;99.90;;;;;;5077334;28;20060;-51
2022/05/14 00:03:21;;;;;;;14.30;4.60;;;11.70;99.90;;;;;;5079533;28;20065;-49
2022/05/14 00:05:48;;;;;;;10.32;4.55;;;11.70;99.90;;;;;;5042426;28;20056;-52
2022/05/14 00:08:15;;;;;;;10.60;4.22;;;11.70;99.90;;;;;;5065753;28;20044;-58
2022/05/14 00:13:27;;;;;;;10.02;3.85;;;11.70;99.90;;;;;;5076314;28;20547;-57
2022/05/14 00:15:53;;;;;;;12.65;4.30;;;11.70;99.90;;;;;;5061802;28;20040;-59
2022/05/14 00:18:21;;;;;;;7.78;4.38;;;11.80;99.90;;;;;;5055323;28;20054;-57
2022/05/14 00:20:48;;;;;;;10.43;4.43;;;11.80;99.90;;;;;;5065441;28;20125;-58
2022/05/14 00:23:14;;;;;;;8.68;3.88;;;11.80;99.90;;;;;;5070660;28;20460;-58
2022/05/14 00:25:41;;;;;;;11.55;4.30;;;11.70;99.90;;;;;;5051823;28;20515;-58
2022/05/14 00:28:07;;;;;;;11.48;3.92;;;11.80;99.90;;;;;;5071479;28;20051;-57
2022/05/14 00:30:33;;;;;;;11.95;4.10;;;11.80;99.90;;;;;;5083510;28;20472;-58
2022/05/14 00:32:59;;;;;;;10.48;4.45;;;11.80;99.90;;;;;;5082728;28;20036;-57
2022/05/14 00:35:26;;;;;;;12.48;3.88;;;11.80;99.90;;;;;;5039889;28;20059;-57
2022/05/14 00:37:52;;;;;;;13.35;4.10;;;11.70;99.90;;;;;;5072514;28;20049;-58
2022/05/14 00:40:22;;;;;;;15.95;4.28;;;11.80;99.90;;;;;;5053959;28;20048;-55
2022/05/14 00:42:49;;;;;;;10.85;4.03;;;11.80;99.90;;;;;;5073761;28;20098;-51
2022/05/14 00:45:19;;;;;;;8.60;4.00;;;11.70;99.90;;;;;;5017335;28;20048;-60
2022/05/14 00:47:49;;;;;;;14.05;4.55;;;11.80;99.90;;;;;;5083417;28;20048;-58
2022/05/14 00:50:20;;;;;;;11.15;4.10;;;11.80;99.90;;;;;;5074355;28;20039;-59
2022/05/14 00:52:46;;;;;;;10.32;3.78;;;11.80;99.90;;;;;;5060261;28;20091;-56
2022/05/14 00:55:12;;;;;;;17.73;4.10;;;11.80;99.90;;;;;;5078283;28;20044;-58
2022/05/14 00:57:41;;;;;;;11.23;3.72;;;11.80;99.90;;;;;;5048082;28;20162;-58
2022/05/14 01:00:18;;;;;;;10.30;4.03;;;11.80;99.90;;;;;;5050044;28;20040;-58
2022/05/14 01:02:44;;;;;;;12.13;3.50;;;11.80;99.90;;;;;;5062608;28;20059;-58
2022/05/14 01:05:12;;;;;;;11.20;3.80;;;11.80;99.90;;;;;;5068286;28;20048;-58
2022/05/14 01:07:39;;;;;;;11.90;4.40;;;11.90;99.90;;;;;;5030838;28;20593;-58
2022/05/14 01:10:09;;;;;;;8.90;3.33;;;11.90;99.90;;;;;;5045937;28;20062;-58
2022/05/14 01:12:42;;;;;;;9.85;3.90;;;11.90;99.90;;;;;;5056009;28;20056;-57
2022/05/14 01:15:19;;;;;;;11.23;4.28;;;11.90;99.90;;;;;;5058815;28;20429;-58
2022/05/14 01:17:46;;;;;;;12.00;3.78;;;11.90;99.90;;;;;;5049263;28;20051;-58
2022/05/14 01:20:17;;;;;;;7.22;4.03;;;11.90;99.90;;;;;;5075391;28;20048;-58
2022/05/14 01:23:04;;;;;;;11.07;4.45;;;11.90;99.90;;;;;;5051833;28;20234;-58
2022/05/14 01:28:18;;;;;;;10.20;3.83;;;11.90;99.90;;;;;;5061775;28;20159;-54
2022/05/14 01:30:50;;;;;;;11.32;3.95;;;11.80;99.90;;;;;;5042103;28;20057;-52
2022/05/14 01:33:17;;;;;;;11.95;4.07;;;11.80;99.90;;;;;;5064154;28;20048;-58
2022/05/14 01:35:45;;;;;;;10.85;4.07;;;11.80;99.90;;;;;;5033267;28;20167;-58
2022/05/14 01:38:14;;;;;;;12.20;4.55;;;11.80;99.90;;;;;;5054735;28;20524;-57
2022/05/14 01:40:41;;;;;;;11.23;4.80;;;11.70;99.90;;;;;;5032593;28;20918;-55
2022/05/14 01:43:07;;;;;;;12.30;4.65;;;11.70;99.90;;;;;;5082338;28;20052;-58
2022/05/14 01:45:34;;;;;;;11.20;3.92;;;11.70;99.90;;;;;;5076564;28;20055;-58
2022/05/14 01:48:01;;;;;;;11.43;5.00;;;11.70;99.90;;;;;;5075412;28;20135;-59
2022/05/14 01:50:28;;;;;;;11.75;4.85;;;11.70;99.90;;;;;;5051444;28;20052;-59
2022/05/14 01:52:54;;;;;;;15.02;4.60;;;11.60;99.90;;;;;;5065060;28;20075;-59
2022/05/14 01:55:20;;;;;;;12.63;4.63;;;11.60;99.90;;;;;;5061768;28;20057;-58
2022/05/14 01:57:46;;;;;;;12.48;4.65;;;11.60;99.90;;;;;;5064125;28;20086;-58
2022/05/14 02:00:18;;;;;;;17.38;5.25;;;11.60;99.90;;;;;;5048120;28;20044;-55
2022/05/14 02:02:51;;;;;;;13.82;4.85;;;11.50;99.90;;;;;;5060850;28;20048;-48
2022/05/14 02:05:18;;;;;;;15.40;4.88;;;11.60;99.90;;;;;;5077332;28;20131;-49
2022/05/14 02:07:45;;;;;;;9.90;4.75;;;11.60;99.90;;;;;;5048248;28;20039;-49
2022/05/14 02:10:11;;;;;;;9.65;4.53;;;11.50;99.90;;;;;;5077717;28;20411;-51
2022/05/14 02:12:40;;;;;;;12.52;4.63;;;11.50;99.90;;;;;;5031145;28;20416;-58
2022/05/14 02:15:07;;;;;;;13.30;5.22;;;11.50;99.90;;;;;;5072418;28;20740;-58
2022/05/14 02:17:34;;;;;;;16.45;5.32;;;11.40;99.90;;;;;;5065159;28;20047;-59
2022/05/14 02:20:01;;;;;;;12.02;5.18;;;11.40;99.90;;;;;;5020851;28;20040;-58
2022/05/14 02:22:27;;;;;;;14.55;6.13;;;11.30;99.90;;;;;;5048023;28;20136;-56
2022/05/14 02:24:54;;;;;;;12.98;5.30;;;11.30;99.90;;;;;;5067072;28;20040;-57
2022/05/14 02:27:21;;;;;;;11.73;5.40;;;11.20;99.90;;;;;;5061005;28;20502;-58
2022/05/14 02:29:56;;;;;;;13.85;5.85;;;11.10;99.90;;;;;;5045746;28;20052;-50
2022/05/14 02:32:25;;;;;;;17.10;6.95;;;11.10;99.90;;;;;;5076770;28;20056;-51
2022/05/14 02:34:52;;;;;;;16.10;5.70;;;11.00;99.90;;;;;;5083413;28;20580;-50
2022/05/14 02:37:22;;;;;;;14.43;6.13;;;11.00;99.90;;;;;;5069220;28;20044;-50
2022/05/14 02:39:49;;;;;;;15.40;6.32;;;10.90;99.90;;;;;;5063002;28;20124;-58
2022/05/14 02:42:16;;;;;;;16.50;6.18;;;10.90;99.90;;;;;;5056783;28;20178;-59
2022/05/14 02:44:43;;;;;;;15.45;6.10;;;10.80;99.90;;;;;;5028319;28;20691;-58
2022/05/14 02:47:10;;;;;;;11.77;6.95;;;10.70;99.90;;;;;;5029121;28;20048;-56
2022/05/14 02:49:36;;;;;;;15.98;6.40;;;10.70;99.90;;;;;;5055683;28;20095;-56
2022/05/14 02:52:03;;;;;;;15.63;5.90;;;10.60;99.90;;;;;;5015134;28;20090;-59
2022/05/14 02:54:29;;;;;;;13.68;6.07;;;10.60;99.90;;;;;;5028791;28;20127;-58
2022/05/14 02:56:56;;;;;;;15.48;6.65;;;10.50;99.90;;;;;;5059045;28;20037;-58
2022/05/14 02:59:22;;;;;;;13.77;6.25;;;10.50;99.90;;;;;;5067420;28;20048;-58
2022/05/14 03:01:49;;;;;;;16.05;6.15;;;10.40;99.90;;;;;;5068339;28;20036;-48
2022/05/14 03:04:22;;;;;;;19.02;6.18;;;10.40;99.90;;;;;;5064899;28;20060;-54
2022/05/14 03:06:51;;;;;;;11.48;6.70;;;10.30;99.90;;;;;;5068715;28;20040;-56
2022/05/14 03:09:17;;;;;;;16.25;7.68;;;10.20;99.90;;;;;;5044554;28;20393;-60
2022/05/14 03:11:44;;;;;;;15.75;6.68;;;10.20;99.90;;;;;;5033171;28;20174;-57
2022/05/14 03:14:12;;;;;;;20.05;6.78;;;10.10;99.90;;;;;;5064073;28;20438;-57
2022/05/14 03:16:40;;;;;;;17.17;7.95;;;10.10;99.90;;;;;;5031953;28;20059;-58
2022/05/14 03:19:07;;;;;;;16.88;7.00;;;10.00;99.90;;;;;;5050492;28;20044;-53
2022/05/14 03:21:35;;;;;;;12.93;7.20;;;10.00;99.90;;;;;;5058854;28;20481;-50
2022/05/14 03:24:01;;;;;;;19.50;7.40;;;9.90;99.90;;;;;;5045026;28;20058;-52
2022/05/14 03:26:27;;;;;;;15.63;7.68;;;9.90;99.90;;;;;;5063785;28;20049;-48
2022/05/14 03:28:54;;;;;;;23.13;8.85;;;9.90;99.90;;;;;;5075329;28;20044;-49
2022/05/14 03:31:21;;;;;;;15.75;8.32;;;9.90;99.90;;;;;;5074240;28;20056;-51
2022/05/14 03:33:47;;;;;;;16.92;7.82;;;9.90;99.90;;;;;;5068877;28;20097;-49
2022/05/14 03:36:14;;;;;;;16.55;7.88;;;9.80;99.90;;;;;;5059934;28;20123;-57
2022/05/14 03:38:40;;;;;;;15.73;7.63;;;9.80;99.90;;;;;;5044777;28;20060;-52
2022/05/14 03:41:07;;;;;;;19.85;9.35;;;9.80;99.90;;;;;;5055393;28;20114;-51
2022/05/14 03:43:34;;;;;;;16.05;8.45;;;9.80;99.90;;;;;;5048451;28;20088;-49
2022/05/14 03:46:00;;;;;;;16.08;9.23;;;9.80;99.90;;;;;;5079684;28;20044;-59
2022/05/14 03:48:28;;;;;;;17.00;8.35;;;9.70;99.90;;;;;;5074707;28;20052;-58
2022/05/14 03:50:54;;;;;;;19.27;9.00;;;9.70;99.90;;;;;;5071667;28;20602;-58
2022/05/14 03:53:22;;;;;;;18.02;9.93;;;9.80;99.90;;;;;;5066840;28;20102;-58
2022/05/14 03:55:49;;;;;;;21.77;9.15;;;9.70;99.90;;;;;;5067668;28;20052;-58
2022/05/14 03:58:16;;;;;;;20.67;8.88;;;9.70;99.90;;;;;;5055084;28;20048;-52
2022/05/14 04:00:42;;;;;;;17.52;9.75;;;9.70;99.90;;;;;;5057384;28;20054;-50
2022/05/14 04:03:08;;;;;;;20.05;9.57;;;9.70;99.90;;;;;;5068836;28;20058;-50
2022/05/14 04:05:35;;;;;;;22.45;9.88;;;9.70;99.90;;;;;;5057730;28;20051;-50
2022/05/14 04:08:01;;;;;;;17.73;10.05;;;9.70;99.90;;;;;;5028926;28;20935;-47
2022/05/14 04:10:27;;;;;;;21.42;10.32;;;9.70;99.90;;;;;;5071393;28;20073;-51
2022/05/14 04:12:53;;;;;;;20.85;10.57;;;9.80;99.90;;;;;;5068694;28;20060;-52
2022/05/14 04:15:23;;;;;;;25.10;10.43;;;9.80;99.90;;;;;;5065694;28;20122;-60
2022/05/14 04:17:54;;;;;;;25.90;11.18;;;9.90;99.90;;;;;;5063372;28;20127;-56
2022/05/14 04:20:21;;;;;;;24.10;10.43;;;9.90;99.90;;;;;;5074722;28;20048;-57
2022/05/14 04:22:48;;;;;;;18.75;10.15;;;9.90;99.90;;;;;;5061468;28;20102;-58
2022/05/14 04:25:15;;;;;;;23.40;11.95;;;10.00;99.90;;;;;;5068134;28;20048;-54
2022/05/14 04:27:41;;;;;;;24.15;11.65;;;10.00;99.90;;;;;;5070045;28;20083;-58
2022/05/14 04:30:09;;;;;;;24.15;10.98;;;10.10;99.90;;;;;;5046761;28;20044;-55
2022/05/14 04:32:36;;;;;;;23.00;11.43;;;10.10;99.90;;;;;;5064506;28;20083;-48
2022/05/14 04:35:03;;;;;;;27.63;11.55;;;10.10;99.90;;;;;;5052592;28;20067;-47
2022/05/14 04:37:30;;;;;;;20.92;10.52;;;10.20;99.90;;;;;;5071423;28;20053;-52
2022/05/14 04:39:56;;;;;;;26.60;12.13;;;10.30;99.90;;;;;;5051670;28;20944;-52
2022/05/14 04:42:22;;;;;;;22.20;10.90;;;10.30;99.90;;;;;;5081706;28;20421;-50
2022/05/14 04:44:48;;;;;;;24.10;11.43;;;10.40;99.90;;;;;;5046689;28;20446;-47
2022/05/14 04:47:16;;;;;;;26.00;11.45;;;10.40;99.90;;;;;;5043161;28;20106;-53
2022/05/14 04:49:46;;;;;;;27.90;11.20;;;10.50;99.90;;;;;;5058433;28;20071;-57
2022/05/14 04:52:13;;;;;;;25.27;12.15;;;10.50;99.90;;;;;;5079109;28;20052;-48
2022/05/14 04:54:40;;;;;;;23.15;10.88;;;10.60;99.90;;;;;;5040584;28;20052;-55
2022/05/14 04:57:08;;;;;;;19.90;11.55;;;10.60;99.90;;;;;;5051987;28;20523;-55
2022/05/14 04:59:36;;;;;;;18.40;11.05;;;10.70;99.90;;;;;;5057101;28;20048;-56
2022/05/14 05:04:50;;;;;;;26.80;11.95;;;11.00;99.90;;;;;;5068241;28;20498;-56
2022/05/14 05:07:18;;;;;;;22.08;10.82;;;11.30;99.90;;;;;;5056683;28;20117;-56
2022/05/14 05:09:46;;;;;;;21.92;10.65;;;11.40;99.90;;;;;;5043857;28;20036;-51
2022/05/14 05:12:12;;;;;;;21.85;10.43;;;11.70;99.90;;;;;;5070822;28;20503;-45
2022/05/14 05:14:38;;;;;;;21.33;11.05;;;11.90;99.90;;;;;;5059348;28;20048;-54
2022/05/14 05:17:05;;;;;;;23.83;10.65;;;12.10;99.90;;;;;;5058848;28;20447;-50
2022/05/14 05:19:31;;;;;;;16.90;9.68;;;12.20;99.90;;;;;;5072136;28;20043;-56
2022/05/14 05:21:57;;;;;;;17.65;9.00;;;12.30;99.90;;;;;;5071001;28;20105;-47
2022/05/14 05:24:23;;;;;;;22.42;9.95;;;12.50;99.90;;;;;;5061901;28;20050;-56
2022/05/14 05:26:49;;;;;;;24.98;9.80;;;12.60;99.90;;;;;;5063951;28;20101;-57
2022/05/14 05:29:15;;;;;;;23.25;9.65;;;12.80;99.90;;;;;;5073913;28;20817;-50
2022/05/14 05:31:42;;;;;;;22.45;9.52;;;13.00;99.90;;;;;;5074222;28;20109;-57
2022/05/14 05:34:08;;;;;;;22.88;8.82;;;13.10;99.90;;;;;;5066972;28;20044;-49
2022/05/14 05:36:34;;;;;;;23.10;9.68;;;13.20;99.90;;;;;;5058407;28;20127;-50
2022/05/14 05:39:00;;;;;;;21.15;9.07;;;13.30;99.90;;;;;;5063142;28;20045;-46
2022/05/14 05:41:26;;;;;;;19.20;9.57;;;13.40;99.90;;;;;;5051147;28;20048;-57
2022/05/14 05:43:52;;;;;;;22.98;8.80;;;13.50;99.90;;;;;;5055915;28;20098;-53
2022/05/14 05:46:19;;;;;;;22.95;10.13;;;13.70;99.90;;;;;;5055880;28;20397;-55
2022/05/14 05:48:45;;;;;;;23.15;9.10;;;13.90;99.90;;;;;;5063484;28;20054;-51
2022/05/14 05:51:11;;;;;;;18.08;8.98;;;14.10;99.90;;;;;;5083047;28;20051;-48
2022/05/14 05:59:09;;;;;;;24.38;9.32;;;14.30;99.90;;;;;;5065001;28;20536;-50
2022/05/14 06:01:35;;;;;;;20.63;9.68;;;14.50;99.90;;;;;;5066903;28;20443;-56
2022/05/14 06:04:01;;;;;;;21.38;8.63;;;14.60;99.90;;;;;;5071347;28;20091;-57
2022/05/14 06:06:27;;;;;;;20.65;8.02;;;14.80;99.90;;;;;;5077817;28;20102;-57
2022/05/14 06:08:54;;;;;;;24.88;13.57;;;14.80;99.90;;;;;;5056001;28;20044;-54
2022/05/14 06:11:20;;;;;;;26.92;12.32;;;14.90;99.90;;;;;;5075688;28;20050;-56
2022/05/14 06:13:46;;;;;;;44.60;29.73;;;15.00;99.90;;;;;;5057971;28;20811;-57
2022/05/14 06:16:14;;;;;;;22.92;11.20;;;15.30;99.90;;;;;;5076263;28;20484;-57
2022/05/14 06:18:44;;;;;;;26.33;14.13;;;15.40;99.90;;;;;;5074992;28;20058;-57
2022/05/14 06:21:12;;;;;;;22.00;9.68;;;15.50;99.90;;;;;;5040082;28;20890;-56
2022/05/14 06:23:38;;;;;;;26.42;11.48;;;15.50;99.90;;;;;;5080115;28;20668;-55
2022/05/14 06:26:04;;;;;;;21.67;8.57;;;15.80;99.90;;;;;;5059025;28;20626;-55
2022/05/14 06:28:30;;;;;;;19.58;8.35;;;16.00;99.90;;;;;;5082985;28;20036;-45
2022/05/14 06:30:58;;;;;;;19.70;7.90;;;16.10;99.90;;;;;;5064465;28;20052;-47
2022/05/14 06:33:26;;;;;;;22.38;8.35;;;16.30;99.90;;;;;;5063348;28;20082;-47
2022/05/14 06:35:53;;;;;;;30.63;14.82;;;16.60;99.90;;;;;;5073096;28;20040;-49
2022/05/14 06:38:19;;;;;;;27.17;12.45;;;16.60;99.90;;;;;;5066055;28;20076;-52
2022/05/14 06:40:46;;;;;;;20.08;7.07;;;16.80;99.90;;;;;;5075813;28;20078;-48
2022/05/14 06:43:15;;;;;;;26.17;10.23;;;17.10;99.90;;;;;;5065351;28;20109;-49
2022/05/14 06:45:43;;;;;;;26.40;13.70;;;17.20;99.90;;;;;;5088281;28;20146;-52
2022/05/14 06:48:10;;;;;;;26.25;14.02;;;16.90;99.90;;;;;;5070472;28;20044;-48
2022/05/14 06:50:47;;;;;;;23.70;9.15;;;16.70;99.90;;;;;;5047813;28;20144;-45
2022/05/14 06:53:15;;;;;;;27.23;7.80;;;16.50;99.90;;;;;;5077050;28;20673;-46
2022/05/14 06:55:44;;;;;;;25.35;13.55;;;16.30;99.90;;;;;;5064411;28;20115;-55
2022/05/14 06:58:16;;;;;;;19.40;7.82;;;16.30;99.90;;;;;;5066036;28;20098;-54
2022/05/14 07:00:43;;;;;;;23.25;7.78;;;16.60;99.90;;;;;;5050398;28;20051;-56
2022/05/14 07:08:40;;;;;;;21.10;6.03;;;17.60;99.90;;;;;;5086869;28;20051;-58
2022/05/14 07:11:08;;;;;;;18.42;6.80;;;17.90;99.90;;;;;;5058643;28;20060;-58
2022/05/14 07:13:34;;;;;;;25.77;9.38;;;18.50;99.90;;;;;;5068516;28;20926;-55
2022/05/14 07:16:00;;;;;;;18.33;6.15;;;18.80;99.90;;;;;;5085187;28;20044;-47
2022/05/14 07:18:26;;;;;;;23.20;6.53;;;19.00;99.90;;;;;;5074971;28;20149;-49
2022/05/14 07:20:52;;;;;;;24.23;7.18;;;19.00;99.90;;;;;;5031792;28;20044;-47
2022/05/14 07:23:18;;;;;;;18.42;6.88;;;19.10;99.90;;;;;;5071630;28;20500;-49
2022/05/14 07:25:44;;;;;;;17.95;6.20;;;19.30;99.90;;;;;;5046774;28;20129;-49
2022/05/14 07:28:10;;;;;;;20.83;6.55;;;19.00;99.90;;;;;;5068635;28;20122;-49
2022/05/14 07:30:36;;;;;;;21.85;6.35;;;19.20;99.90;;;;;;5086414;28;20115;-48
2022/05/14 07:33:03;;;;;;;21.15;6.85;;;19.20;99.90;;;;;;5068055;28;20055;-52
2022/05/14 07:35:30;;;;;;;21.00;6.60;;;19.10;99.90;;;;;;5079845;28;20134;-46
2022/05/14 07:37:58;;;;;;;21.48;6.05;;;19.60;99.90;;;;;;5037347;28;20048;-47
2022/05/14 07:40:27;;;;;;;19.92;6.15;;;19.80;99.90;;;;;;5072177;28;20105;-48
2022/05/14 07:42:59;;;;;;;19.35;5.72;;;19.80;99.90;;;;;;5078115;28;20397;-47
2022/05/14 07:45:42;;;;;;;15.88;5.05;;;19.70;99.90;;;;;;5077518;28;22009;-50
2022/05/14 07:48:13;;;;;;;17.08;5.60;;;20.20;99.90;;;;;;5076555;28;20670;-51
2022/05/14 07:50:40;;;;;;;18.42;5.22;;;19.80;99.90;;;;;;5072422;28;20523;-47
2022/05/14 07:53:06;;;;;;;18.08;5.55;;;20.40;99.90;;;;;;5056517;28;20052;-49
2022/05/14 07:55:33;;;;;;;14.65;4.95;;;20.50;99.90;;;;;;5046879;28;20412;-47
2022/05/14 07:58:00;;;;;;;18.52;5.32;;;20.40;99.90;;;;;;5051093;28;20101;-50
2022/05/14 08:00:26;;;;;;;17.98;5.40;;;20.50;99.90;;;;;;5071355;28;20048;-50
2022/05/14 08:02:52;;;;;;;16.83;5.45;;;20.20;99.90;;;;;;5048032;28;20127;-51
2022/05/14 08:05:20;;;;;;;19.00;5.47;;;20.60;99.90;;;;;;5034036;28;20143;-50
2022/05/14 08:07:47;;;;;;;20.25;7.55;;;20.90;99.90;;;;;;5085110;28;20164;-51
2022/05/14 08:10:16;;;;;;;19.23;5.80;;;20.80;99.90;;;;;;5082402;28;20063;-47
2022/05/14 08:12:50;;;;;;;17.88;5.63;;;20.80;99.90;;;;;;5071121;28;20052;-50
2022/05/14 08:15:17;;;;;;;15.75;4.85;;;21.00;99.90;;;;;;5058518;28;20080;-52
2022/05/14 08:17:45;;;;;;;15.63;5.20;;;21.00;99.90;;;;;;5081623;28;20440;-53
2022/05/14 08:20:12;;;;;;;17.73;5.65;;;20.40;99.90;;;;;;5067765;28;20122;-52
2022/05/14 08:25:24;;;;;;;17.90;5.50;;;20.50;99.90;;;;;;5057872;28;20059;-51
2022/05/14 08:27:50;;;;;;;15.07;5.72;;;20.80;99.90;;;;;;5046552;28;20056;-53
2022/05/14 08:30:22;;;;;;;15.70;5.45;;;20.50;99.90;;;;;;5072801;28;20043;-53
2022/05/14 08:32:49;;;;;;;19.33;5.80;;;19.90;99.90;;;;;;5084712;28;20055;-52
2022/05/14 08:35:16;;;;;;;17.73;6.13;;;20.10;99.90;;;;;;5069398;28;20056;-54
2022/05/14 08:37:42;;;;;;;17.70;6.28;;;20.60;99.90;;;;;;5061455;28;20048;-47
2022/05/14 08:40:22;;;;;;;17.98;6.00;;;20.60;99.90;;;;;;5080170;28;20469;-51
2022/05/14 08:42:53;;;;;;;17.13;6.20;;;20.30;99.90;;;;;;5060140;28;20127;-53
2022/05/14 08:45:22;;;;;;;14.90;5.23;;;20.70;99.90;;;;;;5076635;28;20055;-53
2022/05/14 08:48:01;;;;;;;22.73;6.05;;;21.20;99.90;;;;;;5065936;28;20134;-52
2022/05/14 08:50:32;;;;;;;20.77;6.18;;;21.70;99.90;;;;;;5079838;28;20051;-53
2022/05/14 08:53:03;;;;;;;17.50;5.32;;;21.60;99.90;;;;;;5074465;28;20052;-51
2022/05/14 08:55:49;;;;;;;25.63;8.40;;;21.50;99.90;;;;;;5086316;28;20052;-48
2022/05/14 08:58:35;;;;;;;17.35;7.30;;;21.80;99.90;;;;;;5048629;28;20079;-52
2022/05/14 09:01:04;;;;;;;19.58;5.78;;;21.70;99.80;;;;;;5057618;28;20049;-46
2022/05/14 09:03:32;;;;;;;17.20;6.03;;;21.60;97.70;;;;;;5066692;28;20044;-51
2022/05/14 09:05:59;;;;;;;16.63;5.75;;;21.50;99.90;;;;;;5045424;28;20043;-47
2022/05/14 09:08:26;;;;;;;18.27;6.10;;;21.10;99.90;;;;;;5064226;28;20565;-46
2022/05/14 09:11:21;;;;;;;23.98;13.40;;;21.00;99.90;;;;;;5066717;28;20051;-47
2022/05/14 09:13:51;;;;;;;18.75;5.30;;;20.60;99.90;;;;;;5059590;28;20531;-47
2022/05/14 09:16:24;;;;;;;19.17;5.70;;;20.70;99.90;;;;;;5045669;28;20060;-46
2022/05/14 09:18:51;;;;;;;23.88;10.88;;;20.90;99.90;;;;;;5062054;28;20087;-49
2022/05/14 09:21:27;;;;;;;21.52;6.55;;;21.40;99.90;;;;;;5061250;28;20044;-48
2022/05/14 09:23:56;;;;;;;23.83;12.52;;;21.10;99.90;;;;;;5057624;28;20429;-48
2022/05/14 09:26:36;;;;;;;18.30;5.85;;;20.50;99.90;;;;;;5060468;28;20650;-47
2022/05/14 09:29:40;;;;;;;20.77;5.70;;;20.80;99.90;;;;;;5062352;28;20650;-50
2022/05/14 09:32:20;;;;;;;20.65;5.75;;;20.90;99.90;;;;;;5020756;28;20052;-54
2022/05/14 09:34:47;;;;;;;18.77;5.38;;;21.30;99.90;;;;;;5059228;28;20040;-47
2022/05/14 09:37:21;;;;;;;15.85;4.85;;;20.90;99.90;;;;;;5060331;28;20086;-51
2022/05/14 09:40:05;;;;;;;21.15;5.80;;;20.60;99.90;;;;;;5060217;28;20048;-53
2022/05/14 09:42:45;;;;;;;18.48;5.80;;;20.20;99.90;;;;;;5060850;28;20048;-55
2022/05/14 09:45:21;;;;;;;17.55;5.13;;;20.00;99.90;;;;;;5059502;28;20044;-50
2022/05/14 09:47:47;;;;;;;19.25;5.50;;;20.50;99.90;;;;;;5063648;28;20072;-53
2022/05/14 09:50:33;;;;;;;14.35;5.50;;;21.30;99.90;;;;;;5046041;28;20079;-54
2022/05/14 09:53:03;;;;;;;13.90;4.32;;;22.20;99.90;;;;;;5058317;28;20048;-51
2022/05/14 09:56:08;;;;;;;16.98;6.43;;;23.10;99.60;;;;;;5059486;28;20063;-52
2022/05/14 09:58:59;;;;;;;16.85;5.25;;;23.30;93.60;;;;;;5047058;28;20086;-55
2022/05/14 10:01:32;;;;;;;15.80;4.90;;;23.60;90.10;;;;;;5056070;28;20045;-54
2022/05/14 10:04:34;;;;;;;15.57;4.50;;;23.60;90.40;;;;;;5046873;28;20507;-53
2022/05/14 10:07:14;;;;;;;14.75;5.20;;;22.80;94.90;;;;;;5031456;28;20646;-48
2022/05/14 10:09:54;;;;;;;17.00;5.37;;;22.10;97.30;;;;;;5054341;28;20040;-54
2022/05/14 10:12:36;;;;;;;16.35;4.80;;;21.70;97.70;;;;;;5061000;28;20081;-54
2022/05/14 10:15:11;;;;;;;;;;;21.40;96.60;;;;;;5066631;28;20396;-53
2022/05/14 10:18:02;;;;;;;17.70;5.22;;;21.40;95.80;;;;;;5071715;28;19920;-54
2022/05/14 10:20:57;;;;;;;16.98;5.10;;;21.70;94.10;;;;;;5078639;28;20366;-51
2022/05/14 10:29:33;;;;;;;13.38;4.60;;;22.50;99.20;;;;;;5071842;28;20051;-48
2022/05/14 10:32:07;;;;;;;14.95;5.13;;;22.70;93.90;;;;;;5076536;28;20109;-52
2022/05/14 10:34:55;;;;;;;18.65;5.38;;;22.50;91.50;;;;;;5050646;28;20040;-51
2022/05/14 10:37:46;;;;;;;15.88;4.78;;;22.70;90.90;;;;;;5077520;28;20082;-49
2022/05/14 10:40:21;;;;;;;15.75;4.50;;;22.30;91.10;;;;;;5055467;28;20492;-49
2022/05/14 10:42:56;;;;;;;14.32;4.15;;;22.10;95.60;;;;;;5071023;28;20145;-55
2022/05/14 10:45:30;;;;;;;17.00;5.50;;;22.90;93.50;;;;;;5087234;28;20055;-50
2022/05/14 10:48:14;;;;;;;15.77;4.63;;;23.70;93.40;;;;;;5064471;28;20050;-54
2022/05/14 10:50:40;;;;;;;17.23;5.05;;;24.20;77.30;;;;;;5077239;28;20048;-52
2022/05/14 10:53:08;;;;;;;13.88;4.90;;;24.40;81.80;;;;;;5079642;28;20045;-55
2022/05/14 10:55:59;;;;;;;14.15;5.28;;;25.00;71.00;;;;;;5063759;28;20062;-52
2022/05/14 10:58:53;;;;;;;14.38;4.88;;;25.50;59.10;;;;;;5086072;28;20077;-59
2022/05/14 11:01:58;;;;;;;16.58;5.15;;;25.50;63.40;;;;;;5037579;28;20074;-58
2022/05/14 11:04:39;;;;;;;14.43;5.30;;;26.10;51.90;;;;;;5078168;28;20063;-57
2022/05/14 11:07:09;;;;;;;;;;;25.80;49.50;;;;;;5068460;28;20093;-57
2022/05/14 11:09:46;;;;;;;15.43;4.68;;;25.60;52.00;;;;;;5069117;28;19926;-56
2022/05/14 11:12:18;;;;;;;12.38;4.60;;;25.40;52.40;;;;;;5063801;28;20052;-57
2022/05/14 11:14:54;;;;;;;15.57;4.82;;;24.90;52.90;;;;;;5062412;28;20048;-59
2022/05/14 11:17:28;;;;;;;17.25;5.22;;;24.30;54.80;;;;;;5050420;28;20166;-58
2022/05/14 11:20:03;;;;;;;16.70;5.38;;;24.90;55.80;;;;;;5056190;28;20392;-57
2022/05/14 11:22:48;;;;;;;15.95;5.03;;;25.80;53.30;;;;;;5061054;28;20242;-57
2022/05/14 11:25:19;;;;;;;17.92;4.85;;;25.60;56.70;;;;;;5039875;28;20056;-58
2022/05/14 11:28:28;;;;;;;15.48;4.88;;;25.10;54.90;;;;;;5070740;28;20059;-57
2022/05/14 11:31:09;;;;;;;13.55;4.88;;;24.40;57.10;;;;;;5050890;28;20899;-57
2022/05/14 11:33:35;;;;;;;14.85;5.85;;;23.70;65.10;;;;;;5076459;28;20051;-53
2022/05/14 11:36:24;;;;;;;15.10;5.10;;;23.50;65.60;;;;;;5048968;28;20590;-57
2022/05/14 11:39:31;;;;;;;14.82;5.05;;;23.50;66.30;;;;;;5056348;28;20052;-57
2022/05/14 11:42:24;;;;;;;16.55;5.90;;;23.60;69.60;;;;;;4995533;28;20159;-57
2022/05/14 11:44:56;;;;;;;16.08;4.57;;;23.50;73.40;;;;;;4982505;28;20188;-56
2022/05/14 11:47:32;;;;;;;14.63;4.70;;;23.00;68.40;;;;;;5040489;28;20055;-57
2022/05/14 11:50:01;;;;;;;18.30;5.40;;;23.20;75.80;;;;;;5080056;28;20063;-57
2022/05/14 11:52:42;;;;;;;14.95;4.85;;;23.20;71.50;;;;;;5075298;28;20049;-56
2022/05/14 11:55:20;;;;;;;18.45;5.85;;;23.30;73.70;;;;;;5042894;28;20105;-56
2022/05/14 11:57:52;;;;;;;21.00;5.65;;;22.90;79.00;;;;;;5074721;28;20124;-57
2022/05/14 12:00:34;;;;;;;17.88;5.72;;;22.20;84.50;;;;;;5047614;28;20032;-58
2022/05/14 12:03:30;;;;;;;18.15;5.45;;;22.30;91.10;;;;;;5061942;28;20052;-56
2022/05/14 12:06:16;;;;;;;19.98;8.88;;;22.60;89.80;;;;;;5065067;28;20044;-57
2022/05/14 12:08:43;;;;;;;21.27;5.07;;;23.90;80.30;;;;;;5064325;28;20094;-57
2022/05/14 12:11:19;;;;;;;18.55;6.15;;;23.60;73.10;;;;;;5068021;28;20036;-57
2022/05/14 12:13:57;;;;;;;12.35;4.70;;;23.20;73.60;;;;;;5050175;28;20398;-56
2022/05/14 12:16:54;;;;;;;15.30;4.63;;;23.30;72.80;;;;;;5082423;28;20044;-57
2022/05/14 12:19:29;;;;;;;20.80;5.82;;;23.10;70.30;;;;;;5066330;28;20052;-57
2022/05/14 12:22:20;;;;;;;15.75;5.28;;;22.60;79.30;;;;;;5068277;28;20574;-58
2022/05/14 12:25:33;;;;;;;16.33;5.75;;;22.60;80.00;;;;;;5082630;28;20028;-57
2022/05/14 12:27:59;;;;;;;15.00;4.18;;;22.50;80.00;;;;;;5005567;28;20042;-57
2022/05/14 12:33:19;;;;;;;16.85;5.80;;;22.50;83.10;;;;;;5079617;28;20044;-57
2022/05/14 12:35:54;;;;;;;14.77;4.53;;;22.50;83.70;;;;;;5079898;28;20101;-56
2022/05/14 12:38:29;;;;;;;14.73;4.78;;;22.60;73.70;;;;;;5052296;28;20039;-55
2022/05/14 12:40:57;;;;;;;17.20;5.88;;;22.70;80.00;;;;;;5087298;28;20067;-54
2022/05/14 12:43:23;;;;;;;15.20;4.90;;;23.40;78.20;;;;;;5081463;28;20054;-56
2022/05/14 12:46:19;;;;;;;17.63;5.22;;;23.50;71.40;;;;;;5063435;28;20147;-57
2022/05/14 12:48:48;;;;;;;18.35;5.60;;;23.00;66.30;;;;;;5068099;28;20527;-55
2022/05/14 12:51:24;;;;;;;19.40;5.97;;;22.50;76.10;;;;;;5074196;28;21212;-56
2022/05/14 12:53:52;;;;;;;17.88;6.18;;;22.40;78.20;;;;;;5059193;28;20039;-57
2022/05/14 12:56:21;;;;;;;17.23;5.07;;;22.30;85.10;;;;;;5085840;28;20134;-55
2022/05/14 12:58:48;;;;;;;17.27;5.85;;;22.40;77.90;;;;;;5105612;28;20043;-56
2022/05/14 13:01:18;;;;;;;14.95;5.47;;;22.70;81.20;;;;;;5076165;28;20069;-56
2022/05/14 13:04:02;;;;;;;17.47;4.97;;;22.80;74.70;;;;;;5083466;28;20059;-56
2022/05/14 13:06:34;;;;;;;16.40;4.88;;;23.00;76.20;;;;;;5091108;28;20043;-60
2022/05/14 13:09:08;;;;;;;18.67;6.20;;;23.30;72.00;;;;;;5064318;28;20412;-57
2022/05/14 13:11:37;;;;;;;16.75;5.97;;;23.40;66.60;;;;;;5064221;28;20040;-55
2022/05/14 13:14:31;;;;;;;16.15;4.55;;;23.50;69.20;;;;;;5094925;28;20048;-56
2022/05/14 13:17:04;;;;;;;16.27;5.55;;;23.50;63.40;;;;;;5077416;28;20048;-57
2022/05/14 13:19:42;;;;;;;15.48;4.50;;;23.50;69.30;;;;;;5083051;28;20059;-56
2022/05/14 13:22:32;;;;;;;14.45;5.57;;;23.90;68.30;;;;;;5081602;28;20534;-55
2022/05/14 13:25:01;;;;;;;14.00;4.55;;;23.50;56.40;;;;;;5067052;28;20450;-54
2022/05/14 13:27:36;;;;;;;16.92;5.35;;;24.10;58.30;;;;;;5068559;28;20051;-55
2022/05/14 13:30:12;;;;;;;16.63;4.78;;;24.90;55.20;;;;;;5069440;28;20052;-55